MSC Ludovica — HPAF — position and weather

sailwx.info

Track history (hours):
 
Tides and Currents Weather Stations Pressure Air Temp Water Temp Dewpoint Dewpoint Depression Visibility Wind Speed Wind Dir Waves Ship Positions

MSC Ludovica

Last reported at 2014-Sep-19 17:20 UTC. Time now 2014-Sep-19 19:58 UTC.
Position N 36°20' E 016°06'.

Length 300 m; draft 11.4 m.

Type: Ship. MMSI: 351248000.

Date/timePositionNaut miles runAvg speedWind from/ knotsBaromVisibWave heightAir tempDewpointWater temp
2014-Sep-19 17:20N 36°20' E 016°06'1519.4
2014-Sep-19 16:33N 36°20' E 015°47'1919.2
2014-Sep-19 15:33N 36°20' E 015°23'1919.2
2014-Sep-19 14:33N 36°20' E 014°59'1919.0
2014-Sep-19 13:33N 36°24' E 014°36'1919.0
2014-Sep-19 12:34N 36°30' E 014°14'1919.4
2014-Sep-19 11:33N 36°35' E 013°51'1919.1
2014-Sep-19 10:32N 36°41' E 013°27'13418.4
2014-Sep-19 03:15N 37°29' E 010°50'1319.1
2014-Sep-19 02:33N 37°33' E 010°34'2019.7
2014-Sep-19 01:33N 37°35' E 010°10'6219.8
2014-Sep-18 22:25N 37°23' E 008°53'2018.9
2014-Sep-18 21:21N 37°20' E 008°28'1519.0
2014-Sep-18 20:33N 37°20' E 008°09'1918.7
2014-Sep-18 19:33N 37°20' E 007°45'2019.4
2014-Sep-18 18:31N 37°20' E 007°20'8019.1
2014-Sep-18 14:21N 37°21' E 005°40'1718.9
2014-Sep-18 13:27N 37°21' E 005°18'3819.0
2014-Sep-18 11:26N 37°20' E 004°30'47719.9
2014-Sep-17 11:25N 35°59' W 005°17'21216.4
2014-Sep-16 22:31N 37°20' W 009°21'1919.1
2014-Sep-16 21:33N 37°35' W 009°07'1919.0
2014-Sep-16 20:33N 37°51' W 008°53'5 5.2
2014-Sep-16 19:31N 37°56' W 008°51'0 0.0
2014-Sep-16 18:31N 37°56' W 008°51'0 0.0
2014-Sep-16 17:31N 37°56' W 008°51'0 0.0
2014-Sep-16 16:31N 37°56' W 008°51'0 0.0
2014-Sep-16 15:31N 37°56' W 008°51'0 0.0
2014-Sep-16 14:31N 37°56' W 008°51'0 0.0
2014-Sep-16 13:31N 37°56' W 008°51'0 0.0
2014-Sep-16 12:31N 37°56' W 008°51'0 0.0
2014-Sep-16 11:31N 37°56' W 008°51'0 0.0
2014-Sep-16 10:31N 37°56' W 008°51'0 0.0
2014-Sep-16 09:31N 37°56' W 008°51'0 0.0
2014-Sep-16 08:31N 37°56' W 008°51'0 0.0
2014-Sep-16 07:31N 37°56' W 008°51'0 0.0
2014-Sep-16 06:33N 37°56' W 008°51'2 1.8
2014-Sep-16 05:33N 37°54' W 008°51'1 0.9
2014-Sep-16 04:33N 37°55' W 008°52'1111.0
2014-Sep-16 03:33N 37°58' W 009°06'2019.9
2014-Sep-16 02:33N 38°09' W 009°27'83018.0
2014-Sep-14 04:31N 50°25' W 000°32'4221.5
2014-Sep-14 02:34N 50°36' E 000°31'2019.8
2014-Sep-14 01:33N 50°47' E 000°58'7818.6
2014-Sep-13 21:21N 51°25' E 002°47'1518.2
2014-Sep-13 20:34N 51°24' E 003°10'1717.2
2014-Sep-13 19:33N 51°26' E 003°37'1212.3
2014-Sep-13 18:33N 51°23' E 003°56'10 9.7
2014-Sep-13 17:33N 51°24' E 004°12'5 4.6
2014-Sep-13 16:34N 51°21' E 004°17'0 0.1
2014-Sep-13 15:34N 51°21' E 004°17'2 2.3
2014-Sep-13 14:33N 51°20' E 004°21'0 0.0
2014-Sep-13 13:33N 51°20' E 004°21'0 0.0
2014-Sep-13 12:33N 51°20' E 004°21'0 0.0
2014-Sep-13 11:30N 51°20' E 004°21'0 0.0
2014-Sep-13 10:33N 51°20' E 004°21'0 0.0
2014-Sep-13 09:33N 51°20' E 004°21'0 0.0
2014-Sep-13 08:30N 51°20' E 004°21'0 0.0
2014-Sep-13 07:18N 51°20' E 004°21'0 0.0
2014-Sep-13 06:33N 51°20' E 004°21'0 0.0
2014-Sep-13 05:21N 51°20' E 004°21'0 0.0
2014-Sep-13 04:33N 51°20' E 004°21'0 0.0
2014-Sep-13 03:33N 51°20' E 004°21'0 0.0
2014-Sep-13 02:33N 51°20' E 004°21'0 0.0
2014-Sep-13 01:29N 51°20' E 004°21'0 0.0
2014-Sep-13 00:32N 51°20' E 004°21'0 0.0
2014-Sep-12 23:32N 51°20' E 004°21'0 0.0
2014-Sep-12 22:32N 51°20' E 004°21'0 0.0
2014-Sep-12 21:32N 51°20' E 004°21'0 0.0
2014-Sep-12 20:32N 51°20' E 004°21'0 0.0
2014-Sep-12 19:32N 51°20' E 004°21'0 0.0
2014-Sep-12 18:32N 51°20' E 004°21'0 0.0
2014-Sep-12 17:32N 51°20' E 004°21'0 0.0
2014-Sep-12 16:32N 51°20' E 004°21'0 0.0
2014-Sep-12 15:32N 51°20' E 004°21'0 0.0
2014-Sep-12 14:29N 51°20' E 004°21'0 0.0
2014-Sep-12 13:26N 51°20' E 004°21'0 0.0
2014-Sep-12 12:32N 51°20' E 004°21'0 0.0
2014-Sep-12 11:32N 51°20' E 004°21'0 0.0
2014-Sep-12 10:32N 51°20' E 004°21'0 0.0
2014-Sep-12 09:32N 51°20' E 004°21'0 0.0
2014-Sep-12 08:29N 51°20' E 004°21'0 0.0
2014-Sep-12 07:32N 51°20' E 004°21'0 0.0
2014-Sep-12 06:32N 51°20' E 004°21'2 2.4
2014-Sep-12 05:34N 51°21' E 004°17'0 0.0
2014-Sep-12 04:34N 51°21' E 004°17'3 2.7
2014-Sep-12 03:34N 51°22' E 004°13'7 6.8
2014-Sep-12 02:34N 51°23' E 004°03'6 6.4
2014-Sep-12 01:33N 51°21' E 003°53'1211.7
2014-Sep-12 00:33N 51°26' E 003°36'1615.7
2014-Sep-11 23:33N 51°24' E 003°11'1010.5
2014-Sep-11 22:33N 51°35' E 003°09'1313.1
2014-Sep-11 21:33N 51°47' E 003°14'1615.3
2014-Sep-11 20:32N 52°03' E 003°20'4120.6
2014-Sep-11 18:33N 52°42' E 003°37'2020.0
2014-Sep-11 17:33N 52°57' E 003°58'2019.8
2014-Sep-11 16:33N 53°10' E 004°23'2020.5
2014-Sep-11 15:34N 53°29' E 004°39'2322.6
2014-Sep-11 14:33N 53°37' E 005°14'2222.5
2014-Sep-11 13:33N 53°44' E 005°50'6320.9
2014-Sep-11 10:33N 53°60' E 007°33'1919.6
2014-Sep-11 09:34N 54°01' E 008°06'1514.9
2014-Sep-11 08:33N 53°58' E 008°31'1514.8
2014-Sep-11 07:33N 53°51' E 008°53'1514.8
2014-Sep-11 06:33N 53°52' E 009°18'1514.6
2014-Sep-11 05:33N 53°39' E 009°31'1010.4
2014-Sep-11 04:33N 53°34' E 009°46'5 5.1
2014-Sep-11 03:29N 53°32' E 009°54'0 0.0
2014-Sep-11 02:32N 53°32' E 009°54'0 0.0
2014-Sep-11 01:32N 53°32' E 009°54'0 0.0
2014-Sep-11 00:32N 53°32' E 009°54'0 0.0
2014-Sep-10 23:32N 53°32' E 009°54'0 0.0
2014-Sep-10 22:32N 53°32' E 009°54'0 0.0
2014-Sep-10 21:32N 53°32' E 009°54'0 0.0
2014-Sep-10 20:32N 53°32' E 009°54'0 0.0
2014-Sep-10 19:32N 53°32' E 009°54'0 0.0
2014-Sep-10 18:32N 53°32' E 009°54'0 0.0
2014-Sep-10 17:29N 53°32' E 009°54'0 0.0
2014-Sep-10 16:29N 53°32' E 009°54'0 0.0
2014-Sep-10 15:29N 53°32' E 009°54'0 0.0
2014-Sep-10 14:32N 53°32' E 009°54'0 0.0
2014-Sep-10 13:32N 53°32' E 009°54'0 0.0
2014-Sep-10 12:33N 53°32' E 009°54'7 7.0
2014-Sep-10 11:34N 53°34' E 009°43'1211.6
2014-Sep-10 10:33N 53°42' E 009°29'1512.4
2014-Sep-10 09:22N 53°53' E 009°12'7 9.1
2014-Sep-10 08:33N 53°51' E 009°00'9 8.9
2014-Sep-10 07:33N 53°51' E 008°45'1212.1
2014-Sep-10 06:33N 53°59' E 008°29'1313.4
2014-Sep-10 05:33N 53°59' E 008°06'11 2.1
2014-Sep-10 00:25N 53°55' E 007°49'0 0.0
2014-Sep-09 23:25N 53°55' E 007°49'0 0.0
2014-Sep-09 22:31N 53°55' E 007°49'0 0.0
2014-Sep-09 21:31N 53°55' E 007°49'0 0.0
2014-Sep-09 20:31N 53°55' E 007°49'0 0.0
2014-Sep-09 19:25N 53°55' E 007°49'0 0.0
2014-Sep-09 18:28N 53°55' E 007°49'0 0.0
2014-Sep-09 17:31N 53°55' E 007°49'  
Track history (hours):
 
Tides and Currents Weather Stations Pressure Air Temp Water Temp Dewpoint Dewpoint Depression Visibility Wind Speed Wind Dir Waves Ship Positions

MSC Ludovica

Last reported at 2014-Sep-19 17:20 UTC. Time now 2014-Sep-19 19:58 UTC.
Position N 36°20' E 016°06'.

Length 300 m; draft 11.4 m.

Type: Ship. MMSI: 351248000.

Date/timePositionNaut miles runAvg speedWind from/ knotsBaromVisibWave heightAir tempDewpointWater temp
2014-Sep-19 17:20N 36°20' E 016°06'1519.4
2014-Sep-19 16:33N 36°20' E 015°47'1919.2
2014-Sep-19 15:33N 36°20' E 015°23'1919.2
2014-Sep-19 14:33N 36°20' E 014°59'1919.0
2014-Sep-19 13:33N 36°24' E 014°36'1919.0
2014-Sep-19 12:34N 36°30' E 014°14'1919.4
2014-Sep-19 11:33N 36°35' E 013°51'1919.1
2014-Sep-19 10:32N 36°41' E 013°27'13418.4
2014-Sep-19 03:15N 37°29' E 010°50'1319.1
2014-Sep-19 02:33N 37°33' E 010°34'2019.7
2014-Sep-19 01:33N 37°35' E 010°10'6219.8
2014-Sep-18 22:25N 37°23' E 008°53'2018.9
2014-Sep-18 21:21N 37°20' E 008°28'1519.0
2014-Sep-18 20:33N 37°20' E 008°09'1918.7
2014-Sep-18 19:33N 37°20' E 007°45'2019.4
2014-Sep-18 18:31N 37°20' E 007°20'8019.1
2014-Sep-18 14:21N 37°21' E 005°40'1718.9
2014-Sep-18 13:27N 37°21' E 005°18'3819.0
2014-Sep-18 11:26N 37°20' E 004°30'47719.9
2014-Sep-17 11:25N 35°59' W 005°17'21216.4
2014-Sep-16 22:31N 37°20' W 009°21'1919.1
2014-Sep-16 21:33N 37°35' W 009°07'1919.0
2014-Sep-16 20:33N 37°51' W 008°53'5 5.2
2014-Sep-16 19:31N 37°56' W 008°51'0 0.0
2014-Sep-16 18:31N 37°56' W 008°51'0 0.0
2014-Sep-16 17:31N 37°56' W 008°51'0 0.0
2014-Sep-16 16:31N 37°56' W 008°51'0 0.0
2014-Sep-16 15:31N 37°56' W 008°51'0 0.0
2014-Sep-16 14:31N 37°56' W 008°51'0 0.0
2014-Sep-16 13:31N 37°56' W 008°51'0 0.0
2014-Sep-16 12:31N 37°56' W 008°51'0 0.0
2014-Sep-16 11:31N 37°56' W 008°51'0 0.0
2014-Sep-16 10:31N 37°56' W 008°51'0 0.0
2014-Sep-16 09:31N 37°56' W 008°51'0 0.0
2014-Sep-16 08:31N 37°56' W 008°51'0 0.0
2014-Sep-16 07:31N 37°56' W 008°51'0 0.0
2014-Sep-16 06:33N 37°56' W 008°51'2 1.8
2014-Sep-16 05:33N 37°54' W 008°51'1 0.9
2014-Sep-16 04:33N 37°55' W 008°52'1111.0
2014-Sep-16 03:33N 37°58' W 009°06'2019.9
2014-Sep-16 02:33N 38°09' W 009°27'83018.0
2014-Sep-14 04:31N 50°25' W 000°32'4221.5
2014-Sep-14 02:34N 50°36' E 000°31'2019.8
2014-Sep-14 01:33N 50°47' E 000°58'7818.6
2014-Sep-13 21:21N 51°25' E 002°47'1518.2
2014-Sep-13 20:34N 51°24' E 003°10'1717.2
2014-Sep-13 19:33N 51°26' E 003°37'1212.3
2014-Sep-13 18:33N 51°23' E 003°56'10 9.7
2014-Sep-13 17:33N 51°24' E 004°12'5 4.6
2014-Sep-13 16:34N 51°21' E 004°17'0 0.1
2014-Sep-13 15:34N 51°21' E 004°17'2 2.3
2014-Sep-13 14:33N 51°20' E 004°21'0 0.0
2014-Sep-13 13:33N 51°20' E 004°21'0 0.0
2014-Sep-13 12:33N 51°20' E 004°21'0 0.0
2014-Sep-13 11:30N 51°20' E 004°21'0 0.0
2014-Sep-13 10:33N 51°20' E 004°21'0 0.0
2014-Sep-13 09:33N 51°20' E 004°21'0 0.0
2014-Sep-13 08:30N 51°20' E 004°21'0 0.0
2014-Sep-13 07:18N 51°20' E 004°21'0 0.0
2014-Sep-13 06:33N 51°20' E 004°21'0 0.0
2014-Sep-13 05:21N 51°20' E 004°21'0 0.0
2014-Sep-13 04:33N 51°20' E 004°21'0 0.0
2014-Sep-13 03:33N 51°20' E 004°21'0 0.0
2014-Sep-13 02:33N 51°20' E 004°21'0 0.0
2014-Sep-13 01:29N 51°20' E 004°21'0 0.0
2014-Sep-13 00:32N 51°20' E 004°21'0 0.0
2014-Sep-12 23:32N 51°20' E 004°21'0 0.0
2014-Sep-12 22:32N 51°20' E 004°21'0 0.0
2014-Sep-12 21:32N 51°20' E 004°21'0 0.0
2014-Sep-12 20:32N 51°20' E 004°21'0 0.0
2014-Sep-12 19:32N 51°20' E 004°21'0 0.0
2014-Sep-12 18:32N 51°20' E 004°21'0 0.0
2014-Sep-12 17:32N 51°20' E 004°21'0 0.0
2014-Sep-12 16:32N 51°20' E 004°21'0 0.0
2014-Sep-12 15:32N 51°20' E 004°21'0 0.0
2014-Sep-12 14:29N 51°20' E 004°21'0 0.0
2014-Sep-12 13:26N 51°20' E 004°21'0 0.0
2014-Sep-12 12:32N 51°20' E 004°21'0 0.0
2014-Sep-12 11:32N 51°20' E 004°21'0 0.0
2014-Sep-12 10:32N 51°20' E 004°21'0 0.0
2014-Sep-12 09:32N 51°20' E 004°21'0 0.0
2014-Sep-12 08:29N 51°20' E 004°21'0 0.0
2014-Sep-12 07:32N 51°20' E 004°21'0 0.0
2014-Sep-12 06:32N 51°20' E 004°21'2 2.4
2014-Sep-12 05:34N 51°21' E 004°17'0 0.0
2014-Sep-12 04:34N 51°21' E 004°17'3 2.7
2014-Sep-12 03:34N 51°22' E 004°13'7 6.8
2014-Sep-12 02:34N 51°23' E 004°03'6 6.4
2014-Sep-12 01:33N 51°21' E 003°53'1211.7
2014-Sep-12 00:33N 51°26' E 003°36'1615.7
2014-Sep-11 23:33N 51°24' E 003°11'1010.5
2014-Sep-11 22:33N 51°35' E 003°09'1313.1
2014-Sep-11 21:33N 51°47' E 003°14'1615.3
2014-Sep-11 20:32N 52°03' E 003°20'4120.6
2014-Sep-11 18:33N 52°42' E 003°37'2020.0
2014-Sep-11 17:33N 52°57' E 003°58'2019.8
2014-Sep-11 16:33N 53°10' E 004°23'2020.5
2014-Sep-11 15:34N 53°29' E 004°39'2322.6
2014-Sep-11 14:33N 53°37' E 005°14'2222.5
2014-Sep-11 13:33N 53°44' E 005°50'6320.9
2014-Sep-11 10:33N 53°60' E 007°33'1919.6
2014-Sep-11 09:34N 54°01' E 008°06'1514.9
2014-Sep-11 08:33N 53°58' E 008°31'1514.8
2014-Sep-11 07:33N 53°51' E 008°53'1514.8
2014-Sep-11 06:33N 53°52' E 009°18'1514.6
2014-Sep-11 05:33N 53°39' E 009°31'1010.4
2014-Sep-11 04:33N 53°34' E 009°46'5 5.1
2014-Sep-11 03:29N 53°32' E 009°54'0 0.0
2014-Sep-11 02:32N 53°32' E 009°54'0 0.0
2014-Sep-11 01:32N 53°32' E 009°54'0 0.0
2014-Sep-11 00:32N 53°32' E 009°54'0 0.0
2014-Sep-10 23:32N 53°32' E 009°54'0 0.0
2014-Sep-10 22:32N 53°32' E 009°54'0 0.0
2014-Sep-10 21:32N 53°32' E 009°54'0 0.0
2014-Sep-10 20:32N 53°32' E 009°54'0 0.0
2014-Sep-10 19:32N 53°32' E 009°54'0 0.0
2014-Sep-10 18:32N 53°32' E 009°54'0 0.0
2014-Sep-10 17:29N 53°32' E 009°54'0 0.0
2014-Sep-10 16:29N 53°32' E 009°54'0 0.0
2014-Sep-10 15:29N 53°32' E 009°54'0 0.0
2014-Sep-10 14:32N 53°32' E 009°54'0 0.0
2014-Sep-10 13:32N 53°32' E 009°54'0 0.0
2014-Sep-10 12:33N 53°32' E 009°54'7 7.0
2014-Sep-10 11:34N 53°34' E 009°43'1211.6
2014-Sep-10 10:33N 53°42' E 009°29'1512.4
2014-Sep-10 09:22N 53°53' E 009°12'7 9.1
2014-Sep-10 08:33N 53°51' E 009°00'9 8.9
2014-Sep-10 07:33N 53°51' E 008°45'1212.1
2014-Sep-10 06:33N 53°59' E 008°29'1313.4
2014-Sep-10 05:33N 53°59' E 008°06'11 2.1
2014-Sep-10 00:25N 53°55' E 007°49'0 0.0
2014-Sep-09 23:25N 53°55' E 007°49'0 0.0
2014-Sep-09 22:31N 53°55' E 007°49'0 0.0
2014-Sep-09 21:31N 53°55' E 007°49'0 0.0
2014-Sep-09 20:31N 53°55' E 007°49'0 0.0
2014-Sep-09 19:25N 53°55' E 007°49'0 0.0
2014-Sep-09 18:28N 53°55' E 007°49'0 0.0
2014-Sep-09 17:31N 53°55' E 007°49'  

Dump ship's entire track history